Station info - map view · info · telemetry · weather · raw · status · beacons · messages · bulletins · browse · moving · my account
Callsign, ship name or locator: Clear       
It is possible to search using wildcards (*?) after a prefix. Example: OH*
APRS station OH1RA-9 - show graphs
Map loading...
Comment: C-250 TD
Mic-E message: En route
Location: 47°18.65' N 7°46.74' E - locator JN37VH34LO - show map - static map
0.7 miles South bearing 202° from Egerkingen, Bezirk Gäu, Solothurn, Switzerland [?]
2.7 miles South bearing 169° from Langenbruck, Bezirk Waldenburg, Bâle Campagne, Switzerland
36.3 miles West bearing 264° from Zürich, Bezirk Zürich, Zurich, Switzerland
47.4 miles South bearing 184° from Freiburg, Regierungsbezirk Freiburg, Baden-Württemberg, Germany
Last position: 2018-09-17 00:48:53 EDT (3d 12h8m ago)
2018-09-17 06:48:53 CEST local time at Egerkingen, Switzerland [?]
Altitude: 1424 ft
Course: 314°
Speed: 17 MPH
Device: Kenwood: TM-D710 (rig)
Last path: OH1RA-9>TW1XV5 via WIDE1-1,WIDE2-1,qAR,HB9BHU-10 (good)
Positions stored: 16711
Packet rate: 70 seconds between packets on average during 1539 seconds.
Stations near current position of OH1RA-9 - show more
callsign distance last heard - EDT      callsign distance last heard - EDT
HB9TWT1.0 miles 62°2018-08-31 15:24:42 HB3YSB1.5 miles 57°2018-09-20 07:44:37
HB9FEF-92.7 miles 351°2018-09-20 12:56:34 HB9FEF-102.7 miles 351°2018-09-20 12:54:57
HB9DM-22.7 miles 351°2018-08-22 12:34:16 HB9FEF-52.7 miles 350°2018-09-20 12:23:23
HB9FEF-72.8 miles 347°2018-09-20 12:22:51 HB9EMQ-33.3 miles 238°2018-09-12 00:19:20
HB9EMQ3.3 miles 238°2018-09-06 09:34:04 HB9CRZ-133.5 miles 98°2018-09-05 02:01:03
HB9FSN-93.7 miles 280°2018-09-20 12:55:58 P01408413.9 miles 260°2018-09-12 09:44:36
BGVCZS3.9 miles 16°2018-09-20 12:56:37 HB9FEF-34.7 miles 342°2018-09-20 12:19:53
HB9DDE-105.1 miles 99°2018-09-20 12:57:32 HB9DDE-155.1 miles 100°2018-08-31 15:33:19
HB9DDE-55.1 miles 100°2018-09-15 16:36:43 HB9DDE B5.1 miles 99°2018-09-15 17:02:26
HB9DDE-B5.1 miles 99°2018-09-15 17:02:36 HB9DDE-DP5.1 miles 99°2018-08-25 07:22:06
Stations which heard OH1RA-9 directly on radio –
callsign pkts first heard - EDT last heard longest (tx => rx) longest at - EDT
HB9FS 5 2018-09-07 05:38:00 2018-09-14 11:57:33 JN47AJ > JN37VL 13.2 miles 303° 2018-09-12 12:05:58
HB9BA-2 9 2018-09-03 00:32:57 2018-09-03 01:18:01 JN37XH > JN37SB 26.4 miles 229° 2018-09-03 00:32:57
HB9ZF-1 15 2018-09-03 00:44:14 2018-09-14 01:50:39 JN37VH > JN47KG 51.7 miles 91° 2018-09-14 01:50:39
HB9LU-10 1 2018-09-13 00:51:27 2018-09-13 00:51:27 JN37VH > JN47DB 29.1 miles 131° 2018-09-13 00:51:27
HB9AVQ-10 4 2018-09-03 00:39:37 2018-09-03 01:06:21 JN37WH > JN36QW 33.2 miles 217° 2018-09-03 00:39:37
HB9AW-10 5 2018-09-03 00:21:19 2018-09-07 06:26:03 JN47AJ > JN47AB 22.5 miles 185° 2018-09-03 04:44:17
HB9ZZ-1 5 2018-09-03 04:51:31 2018-09-13 11:10:07 JN37VH > JN47GJ 36.7 miles 83° 2018-09-13 11:10:07
DB0WBD-10 3 2018-09-03 11:13:19 2018-09-08 14:29:35 JN47AJ > JN47ET 33.4 miles 23° 2018-09-08 14:29:35
HB9FEF-10 12 2018-09-03 00:48:03 2018-09-17 00:42:56 JN37VH > JN37VI 3.3 miles 321° 2018-09-12 11:36:37
HB9FLD-11 2 2018-09-03 00:49:03 2018-09-14 11:42:15 JN37VH > JN47CA 27.8 miles 137° 2018-09-03 00:49:03
DB0TOD-10 19 2018-09-03 04:55:29 2018-09-08 14:16:21 JN47AJ > JN37XS 26.6 miles 354° 2018-09-08 14:16:21
HB9RF-1 1 2018-09-03 05:14:03 2018-09-03 05:14:03 JN47CL > JN47FE 23.8 miles 157° 2018-09-03 05:14:03
HB9FX-10 107 2018-09-03 00:23:01 2018-09-17 00:31:37 JN47CK > JN37XH 13.1 miles 224° 2018-09-03 12:20:29
HB9ARI-4 3 2018-09-07 06:48:06 2018-09-12 00:42:59 JN47AI > JN37NC 47.8 miles 247° 2018-09-07 06:48:06
HB9F-10 9 2018-09-03 04:00:03 2018-09-17 00:23:14 JN47DM > JN36WN 70.6 miles 199° 2018-09-03 11:28:03
HB9BHU-10 96 2018-09-03 00:31:13 2018-09-17 00:48:23 JN47AJ > JN37XG 9.7 miles 218° 2018-09-15 09:46:39
HB9FEF-11 80 2018-09-03 00:23:31 2018-09-17 00:30:35 JN47BJ > JN37VL 19.0 miles 289° 2018-09-03 04:49:49

Only position packets which were originated by the station are shown here. The range statistics show some extra long hops, because some digipeaters do not correctly add themselves to the digipeater path. Please check the raw packets.
About this site
This page shows real-time information collected from the Automatic Position Reporting System Internet network (APRS-IS). APRS is used by amateur (ham) radio operators to transmit real-time position information, weather data, telemetry and messages over the radio. A vehicle equipped with a GPS receiver, a VHF transmitter or HF transceiver and a small computer device called a tracker transmits it's location, speed and course in a small data packet, which is then received by a nearby iGate receiving site which forwards the packet on the Internet. Systems connected to the Internet can send information on the APRS-IS without a radio transmitter, or collect and display information transmitted anywhere in the world.
FAQ · Blog · Discussion group · Linking to aprs.fi · AIS sites · Service status · Database statistics · Advertising on aprs.fi · Technical details · API · Change log · Planned changes · Credits and thanks · Terms Of Service · iPhone/iPad APRS